createdAt,value
2022-08-05T00:03:57.856Z,31.17
2022-08-05T00:08:54.460Z,31.25
2022-08-05T00:13:53.174Z,31.29
2022-08-05T00:18:49.982Z,31.29
2022-08-05T00:24:05.058Z,31.13
2022-08-05T00:29:04.832Z,31.26
2022-08-05T00:34:56.203Z,31.45
2022-08-05T00:39:18.885Z,31.46
2022-08-05T00:44:15.557Z,31.46
2022-08-05T00:49:14.052Z,31.31
2022-08-05T00:54:11.600Z,31.26
2022-08-05T00:59:08.923Z,30.86
2022-08-05T01:04:13.551Z,30.49
2022-08-05T01:09:11.124Z,30.43
2022-08-05T01:14:15.439Z,30.41
2022-08-05T01:19:19.988Z,30.28
2022-08-05T01:24:23.348Z,30.40
2022-08-05T01:29:24.901Z,30.60
2022-08-05T01:34:26.917Z,30.50
2022-08-05T01:39:46.816Z,30.20
2022-08-05T01:44:42.913Z,30.10
2022-08-05T01:50:00.520Z,30.15
2022-08-05T01:55:01.301Z,30.46
2022-08-05T02:00:03.422Z,30.58
2022-08-05T02:05:01.285Z,30.24
2022-08-05T02:10:00.529Z,30.11
2022-08-05T02:15:02.977Z,30.09
2022-08-05T02:20:03.286Z,29.89
2022-08-05T02:25:02.448Z,29.96
2022-08-05T02:30:01.110Z,30.20
2022-08-05T02:34:58.939Z,30.37
2022-08-05T02:40:01.264Z,30.19
2022-08-05T02:44:58.795Z,29.91
2022-08-05T02:49:55.696Z,29.82
2022-08-05T02:54:53.167Z,29.80
2022-08-05T02:59:52.073Z,29.80
2022-08-05T03:04:53.221Z,29.55
2022-08-05T03:09:51.969Z,29.65
2022-08-05T03:14:50.152Z,29.80
2022-08-05T03:19:46.730Z,29.91
2022-08-05T03:24:47.742Z,30.06
2022-08-05T03:30:07.369Z,30.11
2022-08-05T03:35:06.260Z,30.30
2022-08-05T03:40:08.333Z,30.04
2022-08-05T03:45:21.735Z,30.11
2022-08-05T03:50:20.723Z,30.09
2022-08-05T03:56:04.361Z,29.85
2022-08-05T04:00:35.777Z,30.06
2022-08-05T04:05:34.900Z,30.13
2022-08-05T04:10:37.587Z,30.36
2022-08-05T04:15:35.887Z,30.39
2022-08-05T04:20:33.889Z,30.35
2022-08-05T04:25:57.829Z,30.13
2022-08-05T04:30:48.106Z,30.13
2022-08-05T04:36:15.912Z,30.16
2022-08-05T04:41:03.526Z,29.83
2022-08-05T04:46:02.567Z,29.85
2022-08-05T04:51:11.172Z,30.02
2022-08-05T04:56:33.447Z,29.70
2022-08-05T05:02:05.491Z,29.84
2022-08-05T05:06:44.781Z,30.06
2022-08-05T05:11:55.503Z,30.27
2022-08-05T05:16:54.612Z,29.54
2022-08-05T05:21:55.679Z,29.49
2022-08-05T05:26:52.504Z,29.95
2022-08-05T05:31:49.310Z,30.25
2022-08-05T05:36:47.832Z,30.27
2022-08-05T05:41:54.444Z,30.41
2022-08-05T05:46:51.411Z,30.29
2022-08-05T05:51:50.330Z,30.30
2022-08-05T05:56:49.233Z,30.51
2022-08-05T06:01:57.799Z,30.63
2022-08-05T06:06:54.784Z,30.83
2022-08-05T06:12:02.043Z,30.73
2022-08-05T06:16:59.683Z,30.59
2022-08-05T06:21:59.197Z,30.49
2022-08-05T06:26:57.575Z,30.17
2022-08-05T06:31:54.180Z,29.71
2022-08-05T06:36:57.087Z,29.47
2022-08-05T06:41:58.666Z,28.49
2022-08-05T06:46:56.963Z,28.22
2022-08-05T06:51:53.776Z,28.02
2022-08-05T06:56:55.110Z,28.16
2022-08-05T07:02:08.291Z,28.35
2022-08-05T07:07:08.042Z,28.52
2022-08-05T07:12:05.106Z,28.67
2022-08-05T07:18:01.837Z,28.49
2022-08-05T07:22:21.950Z,28.46
2022-08-05T07:27:27.415Z,28.76
2022-08-05T07:32:39.195Z,29.22
2022-08-05T07:37:39.457Z,29.02
2022-08-05T07:42:36.508Z,28.96
2022-08-05T07:47:42.071Z,28.89
2022-08-05T07:52:39.888Z,28.99
2022-08-05T07:57:51.354Z,29.14
2022-08-05T08:03:14.598Z,29.44
2022-08-05T08:08:12.380Z,29.46
2022-08-05T08:13:09.229Z,29.40
2022-08-05T08:18:14.411Z,29.46
2022-08-05T08:24:02.216Z,29.47
2022-08-05T08:28:36.050Z,29.57
2022-08-05T08:33:36.056Z,29.91
2022-08-05T08:38:37.628Z,29.70
2022-08-05T08:45:16.585Z,29.96
2022-08-05T08:49:06.109Z,29.95
2022-08-05T08:54:13.893Z,30.16
2022-08-05T08:59:19.385Z,30.42
2022-08-05T09:04:16.864Z,30.48
2022-08-05T09:09:15.846Z,30.76
2022-08-05T09:14:57.459Z,30.95
2022-08-05T09:19:36.445Z,31.15
2022-08-05T09:24:58.124Z,31.12
2022-08-05T09:29:54.758Z,31.21
2022-08-05T09:34:52.687Z,31.49
2022-08-05T09:39:52.096Z,31.73
2022-08-05T09:44:56.734Z,31.37
2022-08-05T09:50:01.251Z,31.83
2022-08-05T09:55:00.153Z,32.01
2022-08-05T10:00:08.097Z,32.08
2022-08-05T10:05:07.986Z,32.29
2022-08-05T10:10:15.642Z,32.18
2022-08-05T10:15:17.011Z,32.74
2022-08-05T10:20:16.213Z,32.97
2022-08-05T10:25:18.038Z,32.84
2022-08-05T10:32:47.739Z,33.00
2022-08-05T10:35:40.594Z,33.21
2022-08-05T10:40:45.068Z,32.68
2022-08-05T10:45:42.639Z,32.82
2022-08-05T10:50:54.587Z,32.54
2022-08-05T10:56:21.177Z,32.72
2022-08-05T11:01:54.883Z,32.56
2022-08-05T11:07:05.879Z,32.88
2022-08-05T11:12:03.636Z,32.86
2022-08-05T11:18:00.250Z,32.71
2022-08-05T11:22:54.033Z,33.11
2022-08-05T11:28:00.744Z,33.12
2022-08-05T11:33:13.738Z,33.26
2022-08-05T11:38:29.464Z,33.60
2022-08-05T11:44:00.746Z,33.60
2022-08-05T11:48:50.253Z,33.94
2022-08-05T11:53:48.580Z,34.12
2022-08-05T11:58:53.078Z,34.19
2022-08-05T12:03:56.125Z,33.45
2022-08-05T12:08:54.814Z,33.24
2022-08-05T12:13:53.678Z,33.10
2022-08-05T12:18:53.036Z,32.92
2022-08-05T12:23:54.608Z,32.89
2022-08-05T12:28:51.285Z,33.34
2022-08-05T12:33:48.039Z,33.59
2022-08-05T12:38:44.972Z,33.80
2022-08-05T12:43:50.081Z,33.87
2022-08-05T12:48:47.103Z,33.77
2022-08-05T12:53:44.843Z,33.74
2022-08-05T12:59:13.823Z,33.53
2022-08-05T13:04:13.592Z,33.58
2022-08-05T13:09:28.631Z,33.40
2022-08-05T13:14:36.657Z,33.65
2022-08-05T13:19:51.680Z,33.68
2022-08-05T13:24:57.698Z,33.83
2022-08-05T13:30:35.104Z,33.67
2022-08-05T13:35:15.761Z,33.69
2022-08-05T13:40:36.670Z,33.76
2022-08-05T13:45:43.304Z,33.88
2022-08-05T13:50:40.047Z,34.00
2022-08-05T13:55:40.723Z,34.09
2022-08-05T14:00:38.127Z,34.03
2022-08-05T14:06:24.455Z,33.91
2022-08-05T14:11:03.236Z,33.69
2022-08-05T14:16:16.775Z,33.81
2022-08-05T14:22:07.925Z,33.63
2022-08-05T14:26:36.207Z,33.99
2022-08-05T14:32:02.858Z,34.11
2022-08-05T14:36:55.290Z,34.02
2022-08-05T14:42:15.888Z,33.55
2022-08-05T14:47:08.882Z,33.91
2022-08-05T14:52:06.713Z,33.39
2022-08-05T14:57:13.482Z,33.76
2022-08-05T15:02:14.785Z,33.90
2022-08-05T15:08:06.086Z,34.32
2022-08-05T15:12:41.095Z,33.94
2022-08-05T15:17:51.192Z,33.81
2022-08-05T15:22:52.244Z,33.87
2022-08-05T15:27:52.381Z,33.46
2022-08-05T15:32:51.561Z,33.62
2022-08-05T15:38:31.720Z,33.25
2022-08-05T15:43:12.867Z,33.58
2022-08-05T15:48:16.715Z,33.44
2022-08-05T15:53:26.333Z,33.69
2022-08-05T15:58:23.639Z,33.59
2022-08-05T16:03:20.693Z,33.66
2022-08-05T16:08:17.742Z,33.67
2022-08-05T16:13:23.287Z,33.88
2022-08-05T16:18:21.024Z,33.79
2022-08-05T16:23:27.786Z,33.73
2022-08-05T16:28:30.575Z,33.66
2022-08-05T16:33:28.142Z,33.82
2022-08-05T16:38:28.024Z,33.65
2022-08-05T16:43:25.502Z,33.59
2022-08-05T16:48:25.271Z,33.59
2022-08-05T16:53:32.102Z,33.47
2022-08-05T16:58:29.637Z,33.65
2022-08-05T17:03:27.342Z,33.56
2022-08-05T17:08:33.445Z,33.64
2022-08-05T17:13:37.676Z,33.64
2022-08-05T17:18:39.219Z,33.63
2022-08-05T17:24:05.054Z,33.75
2022-08-05T17:28:52.703Z,33.83
2022-08-05T17:33:50.904Z,33.73
2022-08-05T17:38:48.248Z,33.75
2022-08-05T17:43:53.126Z,33.80
2022-08-05T17:48:50.779Z,33.79
2022-08-05T17:53:50.717Z,33.76
2022-08-05T17:58:51.562Z,33.64
2022-08-05T18:04:03.910Z,33.69
2022-08-05T18:09:03.695Z,33.38
2022-08-05T18:14:03.598Z,33.46
2022-08-05T18:19:02.727Z,33.53
2022-08-05T18:23:59.391Z,33.27
2022-08-05T18:28:56.784Z,33.27
2022-08-05T18:33:53.648Z,33.17
2022-08-05T18:38:53.360Z,32.90
2022-08-05T18:43:51.244Z,32.85
2022-08-05T18:48:52.100Z,32.76
2022-08-05T18:53:50.665Z,32.59
2022-08-05T18:58:47.334Z,32.57
2022-08-05T19:03:54.867Z,32.43
2022-08-05T19:08:52.558Z,32.23
2022-08-05T19:13:49.445Z,32.14
2022-08-05T19:18:59.275Z,32.31
2022-08-05T19:24:05.723Z,32.32
2022-08-05T19:29:07.029Z,32.32
2022-08-05T19:34:04.649Z,32.03
2022-08-05T19:39:02.412Z,31.93
2022-08-05T19:44:13.818Z,32.09
2022-08-05T19:49:16.362Z,31.94
2022-08-05T19:54:28.393Z,31.70
2022-08-05T20:00:00.881Z,31.60
2022-08-05T20:04:46.087Z,31.40
2022-08-05T20:09:53.520Z,31.36
2022-08-05T20:14:52.935Z,31.20
2022-08-05T20:19:50.613Z,31.33
2022-08-05T20:24:47.257Z,31.20
2022-08-05T20:29:57.660Z,31.16
2022-08-05T20:34:56.076Z,31.07
2022-08-05T20:39:53.924Z,31.01
2022-08-05T20:44:55.242Z,31.19
2022-08-05T20:49:53.211Z,31.19
2022-08-05T20:54:59.504Z,31.08
2022-08-05T21:00:34.930Z,30.97
2022-08-05T21:05:28.555Z,31.11
2022-08-05T21:10:49.105Z,31.21
2022-08-05T21:15:51.073Z,31.19
2022-08-05T21:20:48.031Z,31.33
2022-08-05T21:25:45.369Z,31.56
2022-08-05T21:30:42.279Z,31.71
2022-08-05T21:35:43.734Z,31.52
2022-08-05T21:40:53.448Z,31.38
2022-08-05T21:45:56.548Z,31.57
2022-08-05T21:50:54.662Z,31.78
2022-08-05T21:56:05.638Z,32.00
2022-08-05T22:01:08.694Z,32.01
2022-08-05T22:06:08.353Z,32.05
2022-08-05T22:11:06.743Z,31.76
2022-08-05T22:16:20.418Z,31.66
2022-08-05T22:21:21.480Z,31.47
2022-08-05T22:26:37.235Z,31.05
2022-08-05T22:31:44.787Z,30.83
2022-08-05T22:36:42.379Z,31.01
2022-08-05T22:42:10.738Z,31.01
2022-08-05T22:46:56.500Z,31.04
2022-08-05T22:52:05.453Z,31.17
2022-08-05T22:57:05.085Z,31.16
2022-08-05T23:02:06.075Z,31.10
2022-08-05T23:07:05.414Z,31.39
2022-08-05T23:12:04.163Z,31.30
2022-08-05T23:17:24.615Z,31.57
2022-08-05T23:22:31.972Z,31.75
2022-08-05T23:27:42.235Z,31.85
2022-08-05T23:32:40.826Z,31.34
2022-08-05T23:37:43.696Z,31.09
2022-08-05T23:42:40.317Z,30.99
2022-08-05T23:47:47.667Z,30.96
2022-08-05T23:52:49.946Z,31.24
2022-08-05T23:57:48.911Z,31.37
